sensor_id;sensor_type;location;lat;lon;timestamp;P1;durP1;ratioP1;P2;durP2;ratioP2
9698;SDS011;10089;47.876;8.346;2023-10-09T00:00:10;8.48;;;2.38;;
9698;SDS011;10089;47.876;8.346;2023-10-09T00:02:55;8.25;;;2.30;;
9698;SDS011;10089;47.876;8.346;2023-10-09T00:05:23;10.82;;;2.95;;
9698;SDS011;10089;47.876;8.346;2023-10-09T00:08:02;16.02;;;2.85;;
9698;SDS011;10089;47.876;8.346;2023-10-09T00:10:28;6.45;;;2.63;;
9698;SDS011;10089;47.876;8.346;2023-10-09T00:13:01;10.65;;;2.38;;
9698;SDS011;10089;47.876;8.346;2023-10-09T00:15:27;16.15;;;2.90;;
9698;SDS011;10089;47.876;8.346;2023-10-09T00:17:58;8.52;;;2.83;;
9698;SDS011;10089;47.876;8.346;2023-10-09T00:20:23;10.30;;;2.40;;
9698;SDS011;10089;47.876;8.346;2023-10-09T00:23:02;9.25;;;2.53;;
9698;SDS011;10089;47.876;8.346;2023-10-09T00:25:37;17.63;;;3.08;;
9698;SDS011;10089;47.876;8.346;2023-10-09T00:28:10;11.15;;;2.55;;
9698;SDS011;10089;47.876;8.346;2023-10-09T00:30:40;11.95;;;2.55;;
9698;SDS011;10089;47.876;8.346;2023-10-09T00:33:06;11.68;;;2.83;;
9698;SDS011;10089;47.876;8.346;2023-10-09T00:35:36;15.30;;;3.28;;
9698;SDS011;10089;47.876;8.346;2023-10-09T00:38:08;6.82;;;2.00;;
9698;SDS011;10089;47.876;8.346;2023-10-09T00:40:46;3.90;;;2.45;;
9698;SDS011;10089;47.876;8.346;2023-10-09T00:43:21;13.60;;;2.75;;
9698;SDS011;10089;47.876;8.346;2023-10-09T00:45:53;11.35;;;2.83;;
9698;SDS011;10089;47.876;8.346;2023-10-09T00:48:19;7.68;;;2.45;;
9698;SDS011;10089;47.876;8.346;2023-10-09T00:50:56;21.52;;;3.33;;
9698;SDS011;10089;47.876;8.346;2023-10-09T00:53:25;13.63;;;2.55;;
9698;SDS011;10089;47.876;8.346;2023-10-09T00:55:56;10.60;;;2.60;;
9698;SDS011;10089;47.876;8.346;2023-10-09T00:58:36;12.38;;;2.78;;
9698;SDS011;10089;47.876;8.346;2023-10-09T01:01:02;8.50;;;2.45;;
9698;SDS011;10089;47.876;8.346;2023-10-09T01:03:29;14.60;;;2.45;;
9698;SDS011;10089;47.876;8.346;2023-10-09T01:05:59;7.15;;;2.30;;
9698;SDS011;10089;47.876;8.346;2023-10-09T01:08:35;11.35;;;2.58;;
9698;SDS011;10089;47.876;8.346;2023-10-09T01:11:06;12.73;;;2.55;;
9698;SDS011;10089;47.876;8.346;2023-10-09T01:13:38;15.30;;;3.00;;
9698;SDS011;10089;47.876;8.346;2023-10-09T01:16:21;9.82;;;2.50;;
9698;SDS011;10089;47.876;8.346;2023-10-09T01:18:49;11.02;;;2.60;;
9698;SDS011;10089;47.876;8.346;2023-10-09T01:21:19;11.77;;;2.88;;
9698;SDS011;10089;47.876;8.346;2023-10-09T01:23:49;9.70;;;2.78;;
9698;SDS011;10089;47.876;8.346;2023-10-09T01:26:38;8.43;;;2.67;;
9698;SDS011;10089;47.876;8.346;2023-10-09T01:29:05;6.93;;;2.55;;
9698;SDS011;10089;47.876;8.346;2023-10-09T01:31:36;10.25;;;2.47;;
9698;SDS011;10089;47.876;8.346;2023-10-09T01:34:03;11.40;;;2.60;;
9698;SDS011;10089;47.876;8.346;2023-10-09T01:36:35;6.28;;;2.35;;
9698;SDS011;10089;47.876;8.346;2023-10-09T01:39:04;10.65;;;2.33;;
9698;SDS011;10089;47.876;8.346;2023-10-09T01:41:36;10.75;;;2.85;;
9698;SDS011;10089;47.876;8.346;2023-10-09T01:44:11;6.85;;;2.42;;
9698;SDS011;10089;47.876;8.346;2023-10-09T01:46:37;8.65;;;2.47;;
9698;SDS011;10089;47.876;8.346;2023-10-09T01:49:03;12.68;;;3.25;;
9698;SDS011;10089;47.876;8.346;2023-10-09T01:51:41;10.13;;;2.42;;
9698;SDS011;10089;47.876;8.346;2023-10-09T01:54:07;10.23;;;2.13;;
9698;SDS011;10089;47.876;8.346;2023-10-09T01:56:32;13.43;;;2.50;;
9698;SDS011;10089;47.876;8.346;2023-10-09T01:59:02;12.30;;;2.28;;
9698;SDS011;10089;47.876;8.346;2023-10-09T02:01:30;11.80;;;2.88;;
9698;SDS011;10089;47.876;8.346;2023-10-09T02:03:57;17.20;;;3.28;;
9698;SDS011;10089;47.876;8.346;2023-10-09T02:06:30;9.85;;;2.65;;
9698;SDS011;10089;47.876;8.346;2023-10-09T02:08:57;9.27;;;2.88;;
9698;SDS011;10089;47.876;8.346;2023-10-09T02:11:24;10.98;;;2.53;;
9698;SDS011;10089;47.876;8.346;2023-10-09T02:14:02;14.82;;;3.20;;
9698;SDS011;10089;47.876;8.346;2023-10-09T02:16:31;20.00;;;3.08;;
9698;SDS011;10089;47.876;8.346;2023-10-09T02:19:07;12.18;;;2.60;;
9698;SDS011;10089;47.876;8.346;2023-10-09T02:21:52;10.73;;;2.72;;
9698;SDS011;10089;47.876;8.346;2023-10-09T02:24:18;12.50;;;2.97;;
9698;SDS011;10089;47.876;8.346;2023-10-09T02:27:02;14.60;;;2.38;;
9698;SDS011;10089;47.876;8.346;2023-10-09T02:29:31;12.13;;;2.58;;
9698;SDS011;10089;47.876;8.346;2023-10-09T02:32:00;14.45;;;2.70;;
9698;SDS011;10089;47.876;8.346;2023-10-09T02:34:38;10.35;;;2.47;;
9698;SDS011;10089;47.876;8.346;2023-10-09T02:37:04;7.70;;;1.95;;
9698;SDS011;10089;47.876;8.346;2023-10-09T02:39:38;7.72;;;2.28;;
9698;SDS011;10089;47.876;8.346;2023-10-09T02:42:12;6.38;;;2.30;;
9698;SDS011;10089;47.876;8.346;2023-10-09T02:44:38;20.77;;;2.88;;
9698;SDS011;10089;47.876;8.346;2023-10-09T02:47:11;12.43;;;2.33;;
9698;SDS011;10089;47.876;8.346;2023-10-09T02:49:43;11.68;;;2.40;;
9698;SDS011;10089;47.876;8.346;2023-10-09T02:52:08;12.25;;;2.30;;
9698;SDS011;10089;47.876;8.346;2023-10-09T02:54:35;13.73;;;2.70;;
9698;SDS011;10089;47.876;8.346;2023-10-09T02:57:06;10.02;;;2.70;;
9698;SDS011;10089;47.876;8.346;2023-10-09T02:59:40;7.47;;;2.10;;
9698;SDS011;10089;47.876;8.346;2023-10-09T03:02:07;10.55;;;2.80;;
9698;SDS011;10089;47.876;8.346;2023-10-09T03:04:33;7.70;;;2.20;;
9698;SDS011;10089;47.876;8.346;2023-10-09T03:06:58;10.57;;;2.35;;
9698;SDS011;10089;47.876;8.346;2023-10-09T03:09:24;10.65;;;2.03;;
9698;SDS011;10089;47.876;8.346;2023-10-09T03:11:52;12.07;;;1.90;;
9698;SDS011;10089;47.876;8.346;2023-10-09T03:14:20;15.02;;;2.60;;
9698;SDS011;10089;47.876;8.346;2023-10-09T03:16:47;14.02;;;2.50;;
9698;SDS011;10089;47.876;8.346;2023-10-09T03:19:15;8.38;;;2.38;;
9698;SDS011;10089;47.876;8.346;2023-10-09T03:21:41;16.38;;;2.78;;
9698;SDS011;10089;47.876;8.346;2023-10-09T03:24:07;13.13;;;2.05;;
9698;SDS011;10089;47.876;8.346;2023-10-09T03:26:34;8.63;;;1.90;;
9698;SDS011;10089;47.876;8.346;2023-10-09T03:28:59;10.48;;;2.38;;
9698;SDS011;10089;47.876;8.346;2023-10-09T03:31:32;12.57;;;2.65;;
9698;SDS011;10089;47.876;8.346;2023-10-09T03:33:58;10.55;;;2.10;;
9698;SDS011;10089;47.876;8.346;2023-10-09T03:36:24;5.38;;;2.25;;
9698;SDS011;10089;47.876;8.346;2023-10-09T03:38:54;9.15;;;2.20;;
9698;SDS011;10089;47.876;8.346;2023-10-09T03:41:20;7.88;;;2.05;;
9698;SDS011;10089;47.876;8.346;2023-10-09T03:43:46;15.43;;;2.35;;
9698;SDS011;10089;47.876;8.346;2023-10-09T03:46:12;6.70;;;2.30;;
9698;SDS011;10089;47.876;8.346;2023-10-09T03:48:51;7.18;;;2.45;;
9698;SDS011;10089;47.876;8.346;2023-10-09T03:51:17;8.48;;;2.38;;
9698;SDS011;10089;47.876;8.346;2023-10-09T03:53:50;9.27;;;2.28;;
9698;SDS011;10089;47.876;8.346;2023-10-09T03:56:18;9.40;;;2.35;;
9698;SDS011;10089;47.876;8.346;2023-10-09T03:58:48;11.88;;;2.50;;
9698;SDS011;10089;47.876;8.346;2023-10-09T04:01:15;10.18;;;2.60;;
9698;SDS011;10089;47.876;8.346;2023-10-09T04:03:52;15.32;;;2.70;;
9698;SDS011;10089;47.876;8.346;2023-10-09T04:06:25;6.43;;;1.63;;
9698;SDS011;10089;47.876;8.346;2023-10-09T04:08:57;6.90;;;2.22;;
9698;SDS011;10089;47.876;8.346;2023-10-09T04:11:39;10.90;;;2.17;;
9698;SDS011;10089;47.876;8.346;2023-10-09T04:14:08;7.70;;;2.45;;
9698;SDS011;10089;47.876;8.346;2023-10-09T04:16:37;9.43;;;2.17;;
9698;SDS011;10089;47.876;8.346;2023-10-09T04:19:16;11.05;;;2.40;;
9698;SDS011;10089;47.876;8.346;2023-10-09T04:21:47;14.02;;;2.88;;
9698;SDS011;10089;47.876;8.346;2023-10-09T04:24:13;9.18;;;2.85;;
9698;SDS011;10089;47.876;8.346;2023-10-09T04:26:40;14.43;;;2.30;;
9698;SDS011;10089;47.876;8.346;2023-10-09T04:29:09;10.55;;;2.15;;
9698;SDS011;10089;47.876;8.346;2023-10-09T04:31:44;9.95;;;2.33;;
9698;SDS011;10089;47.876;8.346;2023-10-09T04:34:17;8.25;;;2.30;;
9698;SDS011;10089;47.876;8.346;2023-10-09T04:37:03;8.13;;;2.40;;
9698;SDS011;10089;47.876;8.346;2023-10-09T04:39:49;8.93;;;2.10;;
9698;SDS011;10089;47.876;8.346;2023-10-09T04:42:37;12.48;;;2.42;;
9698;SDS011;10089;47.876;8.346;2023-10-09T04:45:05;12.13;;;2.67;;
9698;SDS011;10089;47.876;8.346;2023-10-09T04:50:14;8.40;;;1.92;;
9698;SDS011;10089;47.876;8.346;2023-10-09T04:53:00;10.15;;;1.67;;
9698;SDS011;10089;47.876;8.346;2023-10-09T04:55:43;20.55;;;3.42;;
9698;SDS011;10089;47.876;8.346;2023-10-09T04:58:19;10.45;;;2.60;;
9698;SDS011;10089;47.876;8.346;2023-10-09T05:00:52;14.10;;;2.75;;
9698;SDS011;10089;47.876;8.346;2023-10-09T05:03:25;7.35;;;2.50;;
9698;SDS011;10089;47.876;8.346;2023-10-09T05:05:55;11.65;;;2.40;;
9698;SDS011;10089;47.876;8.346;2023-10-09T05:08:25;8.60;;;2.50;;
9698;SDS011;10089;47.876;8.346;2023-10-09T05:13:22;9.02;;;2.35;;
9698;SDS011;10089;47.876;8.346;2023-10-09T05:16:17;7.85;;;2.38;;
9698;SDS011;10089;47.876;8.346;2023-10-09T05:18:45;9.77;;;2.00;;
9698;SDS011;10089;47.876;8.346;2023-10-09T05:21:22;7.25;;;2.28;;
9698;SDS011;10089;47.876;8.346;2023-10-09T05:24:02;10.02;;;2.13;;
9698;SDS011;10089;47.876;8.346;2023-10-09T05:26:55;6.28;;;2.47;;
9698;SDS011;10089;47.876;8.346;2023-10-09T05:33:00;10.90;;;2.30;;
9698;SDS011;10089;47.876;8.346;2023-10-09T05:35:45;10.45;;;2.28;;
9698;SDS011;10089;47.876;8.346;2023-10-09T05:38:30;9.55;;;2.53;;
9698;SDS011;10089;47.876;8.346;2023-10-09T05:41:00;13.93;;;2.42;;
9698;SDS011;10089;47.876;8.346;2023-10-09T05:47:03;15.15;;;1.90;;
9698;SDS011;10089;47.876;8.346;2023-10-09T05:49:47;9.55;;;2.40;;
9698;SDS011;10089;47.876;8.346;2023-10-09T05:58:27;12.27;;;2.67;;
9698;SDS011;10089;47.876;8.346;2023-10-09T06:01:14;7.35;;;2.50;;
9698;SDS011;10089;47.876;8.346;2023-10-09T06:03:58;10.70;;;2.53;;
9698;SDS011;10089;47.876;8.346;2023-10-09T06:06:40;16.38;;;2.35;;
9698;SDS011;10089;47.876;8.346;2023-10-09T06:09:20;7.32;;;2.22;;
9698;SDS011;10089;47.876;8.346;2023-10-09T06:11:47;13.32;;;2.55;;
9698;SDS011;10089;47.876;8.346;2023-10-09T06:14:13;14.75;;;2.90;;
9698;SDS011;10089;47.876;8.346;2023-10-09T06:16:51;14.15;;;2.35;;
9698;SDS011;10089;47.876;8.346;2023-10-09T06:19:46;8.40;;;2.45;;
9698;SDS011;10089;47.876;8.346;2023-10-09T06:22:14;13.63;;;2.83;;
9698;SDS011;10089;47.876;8.346;2023-10-09T06:24:58;7.30;;;2.30;;
9698;SDS011;10089;47.876;8.346;2023-10-09T06:27:33;10.63;;;2.40;;
9698;SDS011;10089;47.876;8.346;2023-10-09T06:29:59;15.60;;;2.42;;
9698;SDS011;10089;47.876;8.346;2023-10-09T06:32:37;11.68;;;2.90;;
9698;SDS011;10089;47.876;8.346;2023-10-09T06:35:10;3.67;;;2.03;;
9698;SDS011;10089;47.876;8.346;2023-10-09T06:37:50;8.43;;;2.30;;
9698;SDS011;10089;47.876;8.346;2023-10-09T06:40:28;7.68;;;2.42;;
9698;SDS011;10089;47.876;8.346;2023-10-09T06:43:12;10.93;;;3.22;;
9698;SDS011;10089;47.876;8.346;2023-10-09T06:46:04;10.68;;;2.80;;
9698;SDS011;10089;47.876;8.346;2023-10-09T06:48:48;6.75;;;2.42;;
9698;SDS011;10089;47.876;8.346;2023-10-09T06:51:24;9.10;;;2.80;;
9698;SDS011;10089;47.876;8.346;2023-10-09T06:53:53;5.45;;;2.17;;
9698;SDS011;10089;47.876;8.346;2023-10-09T06:56:20;8.35;;;2.55;;
9698;SDS011;10089;47.876;8.346;2023-10-09T06:58:59;9.77;;;2.78;;
9698;SDS011;10089;47.876;8.346;2023-10-09T07:01:39;9.70;;;2.13;;
9698;SDS011;10089;47.876;8.346;2023-10-09T07:04:13;15.25;;;2.97;;
9698;SDS011;10089;47.876;8.346;2023-10-09T07:07:05;13.90;;;2.67;;
9698;SDS011;10089;47.876;8.346;2023-10-09T07:09:40;19.13;;;2.80;;
9698;SDS011;10089;47.876;8.346;2023-10-09T07:12:28;9.15;;;2.75;;
9698;SDS011;10089;47.876;8.346;2023-10-09T07:14:57;14.93;;;3.00;;
9698;SDS011;10089;47.876;8.346;2023-10-09T07:17:26;7.50;;;2.65;;
9698;SDS011;10089;47.876;8.346;2023-10-09T07:19:58;9.32;;;2.63;;
9698;SDS011;10089;47.876;8.346;2023-10-09T07:22:35;12.32;;;2.28;;
9698;SDS011;10089;47.876;8.346;2023-10-09T07:25:05;7.47;;;2.65;;
9698;SDS011;10089;47.876;8.346;2023-10-09T07:27:52;7.63;;;2.38;;
9698;SDS011;10089;47.876;8.346;2023-10-09T07:30:21;11.05;;;2.67;;
9698;SDS011;10089;47.876;8.346;2023-10-09T07:35:42;10.02;;;2.50;;
9698;SDS011;10089;47.876;8.346;2023-10-09T07:38:34;12.00;;;3.40;;
9698;SDS011;10089;47.876;8.346;2023-10-09T07:41:04;6.95;;;3.15;;
9698;SDS011;10089;47.876;8.346;2023-10-09T07:43:36;11.90;;;2.92;;
9698;SDS011;10089;47.876;8.346;2023-10-09T07:46:10;17.55;;;2.95;;
9698;SDS011;10089;47.876;8.346;2023-10-09T07:49:02;8.30;;;2.53;;
9698;SDS011;10089;47.876;8.346;2023-10-09T07:51:37;10.93;;;2.47;;
9698;SDS011;10089;47.876;8.346;2023-10-09T07:54:08;21.90;;;3.13;;
9698;SDS011;10089;47.876;8.346;2023-10-09T07:56:34;17.10;;;2.72;;
9698;SDS011;10089;47.876;8.346;2023-10-09T07:59:15;8.40;;;2.20;;
9698;SDS011;10089;47.876;8.346;2023-10-09T08:01:44;8.63;;;2.35;;
9698;SDS011;10089;47.876;8.346;2023-10-09T08:04:46;11.85;;;2.47;;
9698;SDS011;10089;47.876;8.346;2023-10-09T08:07:14;9.52;;;3.03;;
9698;SDS011;10089;47.876;8.346;2023-10-09T08:10:14;13.90;;;2.20;;
9698;SDS011;10089;47.876;8.346;2023-10-09T08:12:43;16.35;;;2.42;;
9698;SDS011;10089;47.876;8.346;2023-10-09T08:15:15;13.02;;;2.47;;
9698;SDS011;10089;47.876;8.346;2023-10-09T08:17:44;11.95;;;3.03;;
9698;SDS011;10089;47.876;8.346;2023-10-09T08:20:20;6.55;;;2.28;;
9698;SDS011;10089;47.876;8.346;2023-10-09T08:22:50;13.30;;;2.83;;
9698;SDS011;10089;47.876;8.346;2023-10-09T08:25:18;9.25;;;2.60;;
9698;SDS011;10089;47.876;8.346;2023-10-09T08:27:54;10.05;;;2.30;;
9698;SDS011;10089;47.876;8.346;2023-10-09T08:30:22;10.98;;;2.30;;
9698;SDS011;10089;47.876;8.346;2023-10-09T08:32:49;14.13;;;2.42;;
9698;SDS011;10089;47.876;8.346;2023-10-09T08:35:28;6.88;;;2.65;;
9698;SDS011;10089;47.876;8.346;2023-10-09T08:38:11;15.10;;;2.78;;
9698;SDS011;10089;47.876;8.346;2023-10-09T08:40:41;11.70;;;2.65;;
9698;SDS011;10089;47.876;8.346;2023-10-09T08:43:15;9.95;;;2.53;;
9698;SDS011;10089;47.876;8.346;2023-10-09T08:48:16;12.73;;;3.20;;
9698;SDS011;10089;47.876;8.346;2023-10-09T08:50:46;17.20;;;2.92;;
9698;SDS011;10089;47.876;8.346;2023-10-09T08:53:13;15.10;;;2.85;;
9698;SDS011;10089;47.876;8.346;2023-10-09T08:55:41;13.60;;;3.30;;
9698;SDS011;10089;47.876;8.346;2023-10-09T08:58:07;9.85;;;2.83;;
9698;SDS011;10089;47.876;8.346;2023-10-09T09:00:49;7.47;;;2.63;;
9698;SDS011;10089;47.876;8.346;2023-10-09T09:03:16;14.60;;;2.92;;
9698;SDS011;10089;47.876;8.346;2023-10-09T09:05:47;9.02;;;2.88;;
9698;SDS011;10089;47.876;8.346;2023-10-09T09:08:26;11.70;;;2.55;;
9698;SDS011;10089;47.876;8.346;2023-10-09T09:11:02;8.52;;;2.33;;
9698;SDS011;10089;47.876;8.346;2023-10-09T09:13:42;18.08;;;3.40;;
9698;SDS011;10089;47.876;8.346;2023-10-09T09:16:14;9.15;;;2.97;;
9698;SDS011;10089;47.876;8.346;2023-10-09T09:22:17;19.05;;;2.88;;
9698;SDS011;10089;47.876;8.346;2023-10-09T09:24:44;14.48;;;2.65;;
9698;SDS011;10089;47.876;8.346;2023-10-09T09:27:46;6.80;;;2.85;;
9698;SDS011;10089;47.876;8.346;2023-10-09T09:30:26;16.50;;;3.15;;
9698;SDS011;10089;47.876;8.346;2023-10-09T09:33:16;16.58;;;2.67;;
9698;SDS011;10089;47.876;8.346;2023-10-09T09:36:02;14.55;;;2.30;;
9698;SDS011;10089;47.876;8.346;2023-10-09T09:38:32;14.82;;;2.80;;
9698;SDS011;10089;47.876;8.346;2023-10-09T09:41:12;9.65;;;2.50;;
9698;SDS011;10089;47.876;8.346;2023-10-09T09:43:56;13.82;;;2.50;;
9698;SDS011;10089;47.876;8.346;2023-10-09T09:46:26;15.13;;;2.88;;
9698;SDS011;10089;47.876;8.346;2023-10-09T09:48:59;10.63;;;3.17;;
9698;SDS011;10089;47.876;8.346;2023-10-09T09:51:26;15.13;;;3.22;;
9698;SDS011;10089;47.876;8.346;2023-10-09T09:53:55;11.65;;;2.50;;
9698;SDS011;10089;47.876;8.346;2023-10-09T09:56:22;12.23;;;2.50;;
9698;SDS011;10089;47.876;8.346;2023-10-09T09:58:51;12.80;;;3.53;;
9698;SDS011;10089;47.876;8.346;2023-10-09T10:01:18;15.60;;;3.35;;
9698;SDS011;10089;47.876;8.346;2023-10-09T10:03:59;17.60;;;2.67;;
9698;SDS011;10089;47.876;8.346;2023-10-09T10:06:30;15.23;;;3.20;;
9698;SDS011;10089;47.876;8.346;2023-10-09T10:08:58;11.25;;;2.22;;
9698;SDS011;10089;47.876;8.346;2023-10-09T10:14:10;9.00;;;2.50;;
9698;SDS011;10089;47.876;8.346;2023-10-09T10:19:44;8.32;;;2.38;;
9698;SDS011;10089;47.876;8.346;2023-10-09T10:22:46;12.85;;;2.78;;
9698;SDS011;10089;47.876;8.346;2023-10-09T10:25:34;8.27;;;2.85;;
9698;SDS011;10089;47.876;8.346;2023-10-09T10:28:19;12.07;;;2.60;;
9698;SDS011;10089;47.876;8.346;2023-10-09T10:30:54;11.30;;;3.00;;
9698;SDS011;10089;47.876;8.346;2023-10-09T10:33:20;12.85;;;3.20;;
9698;SDS011;10089;47.876;8.346;2023-10-09T10:35:48;14.93;;;3.33;;
9698;SDS011;10089;47.876;8.346;2023-10-09T10:38:26;10.43;;;2.10;;
9698;SDS011;10089;47.876;8.346;2023-10-09T10:41:34;16.45;;;2.75;;
9698;SDS011;10089;47.876;8.346;2023-10-09T10:43:56;14.98;;;2.78;;
9698;SDS011;10089;47.876;8.346;2023-10-09T10:46:25;15.13;;;2.95;;
9698;SDS011;10089;47.876;8.346;2023-10-09T10:49:03;17.40;;;3.13;;
9698;SDS011;10089;47.876;8.346;2023-10-09T10:51:46;16.02;;;3.10;;
9698;SDS011;10089;47.876;8.346;2023-10-09T10:54:21;9.27;;;2.45;;
9698;SDS011;10089;47.876;8.346;2023-10-09T10:56:56;16.42;;;3.17;;
9698;SDS011;10089;47.876;8.346;2023-10-09T10:59:23;19.95;;;3.53;;
9698;SDS011;10089;47.876;8.346;2023-10-09T11:01:52;9.30;;;3.15;;
9698;SDS011;10089;47.876;8.346;2023-10-09T11:04:22;12.20;;;3.05;;
9698;SDS011;10089;47.876;8.346;2023-10-09T11:06:55;12.65;;;2.60;;
9698;SDS011;10089;47.876;8.346;2023-10-09T11:09:46;10.43;;;2.72;;
9698;SDS011;10089;47.876;8.346;2023-10-09T11:12:27;13.68;;;2.65;;
9698;SDS011;10089;47.876;8.346;2023-10-09T11:15:07;13.88;;;2.90;;
9698;SDS011;10089;47.876;8.346;2023-10-09T11:18:01;19.45;;;2.92;;
9698;SDS011;10089;47.876;8.346;2023-10-09T11:20:41;13.90;;;2.20;;
9698;SDS011;10089;47.876;8.346;2023-10-09T11:23:21;10.70;;;2.60;;
9698;SDS011;10089;47.876;8.346;2023-10-09T11:26:14;13.68;;;2.55;;
9698;SDS011;10089;47.876;8.346;2023-10-09T11:31:40;16.58;;;2.92;;
9698;SDS011;10089;47.876;8.346;2023-10-09T11:34:19;10.75;;;3.00;;
9698;SDS011;10089;47.876;8.346;2023-10-09T11:36:56;11.93;;;3.28;;
9698;SDS011;10089;47.876;8.346;2023-10-09T11:39:29;8.43;;;2.83;;
9698;SDS011;10089;47.876;8.346;2023-10-09T11:42:04;14.63;;;2.70;;
9698;SDS011;10089;47.876;8.346;2023-10-09T11:44:35;14.45;;;3.10;;
9698;SDS011;10089;47.876;8.346;2023-10-09T11:47:01;10.95;;;2.80;;
9698;SDS011;10089;47.876;8.346;2023-10-09T11:49:49;12.52;;;2.80;;
9698;SDS011;10089;47.876;8.346;2023-10-09T11:52:30;13.88;;;2.92;;
9698;SDS011;10089;47.876;8.346;2023-10-09T11:54:56;14.18;;;3.47;;
9698;SDS011;10089;47.876;8.346;2023-10-09T11:57:27;8.40;;;2.72;;
9698;SDS011;10089;47.876;8.346;2023-10-09T11:59:57;17.50;;;3.30;;
9698;SDS011;10089;47.876;8.346;2023-10-09T12:02:26;8.02;;;2.35;;
9698;SDS011;10089;47.876;8.346;2023-10-09T12:04:52;14.93;;;2.80;;
9698;SDS011;10089;47.876;8.346;2023-10-09T12:07:21;16.38;;;2.83;;
9698;SDS011;10089;47.876;8.346;2023-10-09T12:09:47;16.50;;;2.58;;
9698;SDS011;10089;47.876;8.346;2023-10-09T12:12:21;11.63;;;2.92;;
9698;SDS011;10089;47.876;8.346;2023-10-09T12:14:51;8.55;;;2.38;;
9698;SDS011;10089;47.876;8.346;2023-10-09T12:17:18;12.00;;;3.13;;
9698;SDS011;10089;47.876;8.346;2023-10-09T12:19:43;9.98;;;2.38;;
9698;SDS011;10089;47.876;8.346;2023-10-09T12:22:09;19.85;;;2.92;;
9698;SDS011;10089;47.876;8.346;2023-10-09T12:24:35;15.02;;;3.03;;
9698;SDS011;10089;47.876;8.346;2023-10-09T12:27:02;12.63;;;3.40;;
9698;SDS011;10089;47.876;8.346;2023-10-09T12:29:35;15.48;;;3.35;;
9698;SDS011;10089;47.876;8.346;2023-10-09T12:32:01;14.32;;;2.72;;
9698;SDS011;10089;47.876;8.346;2023-10-09T12:34:28;9.57;;;2.80;;
9698;SDS011;10089;47.876;8.346;2023-10-09T12:36:56;11.52;;;3.20;;
9698;SDS011;10089;47.876;8.346;2023-10-09T12:39:26;12.02;;;3.67;;
9698;SDS011;10089;47.876;8.346;2023-10-09T12:41:58;21.10;;;3.97;;
9698;SDS011;10089;47.876;8.346;2023-10-09T12:44:31;10.60;;;2.28;;
9698;SDS011;10089;47.876;8.346;2023-10-09T12:46:59;12.30;;;2.88;;
9698;SDS011;10089;47.876;8.346;2023-10-09T12:49:29;8.43;;;2.90;;
9698;SDS011;10089;47.876;8.346;2023-10-09T12:51:54;10.38;;;2.45;;
9698;SDS011;10089;47.876;8.346;2023-10-09T12:54:21;21.40;;;2.97;;
9698;SDS011;10089;47.876;8.346;2023-10-09T12:56:52;14.95;;;3.25;;
9698;SDS011;10089;47.876;8.346;2023-10-09T12:59:18;17.60;;;3.00;;
9698;SDS011;10089;47.876;8.346;2023-10-09T13:01:45;10.15;;;3.00;;
9698;SDS011;10089;47.876;8.346;2023-10-09T13:04:15;9.85;;;2.80;;
9698;SDS011;10089;47.876;8.346;2023-10-09T13:06:44;14.45;;;2.90;;
9698;SDS011;10089;47.876;8.346;2023-10-09T13:09:10;22.05;;;3.08;;
9698;SDS011;10089;47.876;8.346;2023-10-09T13:11:38;10.50;;;2.72;;
9698;SDS011;10089;47.876;8.346;2023-10-09T13:14:05;18.75;;;2.88;;
9698;SDS011;10089;47.876;8.346;2023-10-09T13:16:42;12.25;;;2.70;;
9698;SDS011;10089;47.876;8.346;2023-10-09T13:19:12;10.27;;;2.40;;
9698;SDS011;10089;47.876;8.346;2023-10-09T13:21:38;11.95;;;2.75;;
9698;SDS011;10089;47.876;8.346;2023-10-09T13:24:07;9.70;;;2.85;;
9698;SDS011;10089;47.876;8.346;2023-10-09T13:26:41;13.27;;;3.00;;
9698;SDS011;10089;47.876;8.346;2023-10-09T13:29:11;16.13;;;2.90;;
9698;SDS011;10089;47.876;8.346;2023-10-09T13:31:38;12.30;;;3.13;;
9698;SDS011;10089;47.876;8.346;2023-10-09T13:34:05;11.07;;;3.22;;
9698;SDS011;10089;47.876;8.346;2023-10-09T13:36:32;10.43;;;3.35;;
9698;SDS011;10089;47.876;8.346;2023-10-09T13:39:04;14.20;;;3.40;;
9698;SDS011;10089;47.876;8.346;2023-10-09T13:42:08;10.90;;;3.70;;
9698;SDS011;10089;47.876;8.346;2023-10-09T13:44:34;14.45;;;3.47;;
9698;SDS011;10089;47.876;8.346;2023-10-09T13:47:03;17.33;;;4.28;;
9698;SDS011;10089;47.876;8.346;2023-10-09T13:49:33;8.18;;;3.15;;
9698;SDS011;10089;47.876;8.346;2023-10-09T13:52:02;15.13;;;3.08;;
9698;SDS011;10089;47.876;8.346;2023-10-09T13:54:29;12.63;;;3.05;;
9698;SDS011;10089;47.876;8.346;2023-10-09T13:56:58;14.05;;;3.72;;
9698;SDS011;10089;47.876;8.346;2023-10-09T13:59:29;12.88;;;3.03;;
9698;SDS011;10089;47.876;8.346;2023-10-09T14:01:55;19.75;;;3.70;;
9698;SDS011;10089;47.876;8.346;2023-10-09T14:04:24;16.25;;;3.63;;
9698;SDS011;10089;47.876;8.346;2023-10-09T14:06:53;16.23;;;4.03;;
9698;SDS011;10089;47.876;8.346;2023-10-09T14:09:22;20.50;;;4.55;;
9698;SDS011;10089;47.876;8.346;2023-10-09T14:12:04;15.05;;;3.63;;
9698;SDS011;10089;47.876;8.346;2023-10-09T14:14:44;13.68;;;3.75;;
9698;SDS011;10089;47.876;8.346;2023-10-09T14:19:43;19.02;;;3.67;;
9698;SDS011;10089;47.876;8.346;2023-10-09T14:22:13;10.52;;;3.38;;
9698;SDS011;10089;47.876;8.346;2023-10-09T14:24:46;14.73;;;4.20;;
9698;SDS011;10089;47.876;8.346;2023-10-09T14:27:13;14.60;;;3.90;;
9698;SDS011;10089;47.876;8.346;2023-10-09T14:29:52;13.55;;;3.70;;
9698;SDS011;10089;47.876;8.346;2023-10-09T14:32:21;9.40;;;2.80;;
9698;SDS011;10089;47.876;8.346;2023-10-09T14:34:54;12.18;;;3.63;;
9698;SDS011;10089;47.876;8.346;2023-10-09T14:37:25;9.75;;;2.63;;
9698;SDS011;10089;47.876;8.346;2023-10-09T14:39:52;19.85;;;3.45;;
9698;SDS011;10089;47.876;8.346;2023-10-09T14:42:18;11.73;;;3.00;;
9698;SDS011;10089;47.876;8.346;2023-10-09T14:44:45;13.70;;;3.22;;
9698;SDS011;10089;47.876;8.346;2023-10-09T14:47:11;13.07;;;3.00;;
9698;SDS011;10089;47.876;8.346;2023-10-09T14:49:39;11.95;;;2.67;;
9698;SDS011;10089;47.876;8.346;2023-10-09T14:52:11;13.80;;;3.30;;
9698;SDS011;10089;47.876;8.346;2023-10-09T14:54:41;12.88;;;3.20;;
9698;SDS011;10089;47.876;8.346;2023-10-09T14:57:09;15.68;;;3.63;;
9698;SDS011;10089;47.876;8.346;2023-10-09T14:59:36;18.05;;;3.80;;
9698;SDS011;10089;47.876;8.346;2023-10-09T15:02:02;16.02;;;3.15;;
9698;SDS011;10089;47.876;8.346;2023-10-09T15:04:30;14.70;;;3.65;;
9698;SDS011;10089;47.876;8.346;2023-10-09T15:06:56;13.40;;;3.58;;
9698;SDS011;10089;47.876;8.346;2023-10-09T15:09:22;12.43;;;3.88;;
9698;SDS011;10089;47.876;8.346;2023-10-09T15:11:53;12.90;;;3.65;;
9698;SDS011;10089;47.876;8.346;2023-10-09T15:14:19;19.33;;;3.75;;
9698;SDS011;10089;47.876;8.346;2023-10-09T15:16:45;13.50;;;3.63;;
9698;SDS011;10089;47.876;8.346;2023-10-09T15:19:12;10.35;;;3.45;;
9698;SDS011;10089;47.876;8.346;2023-10-09T15:21:38;11.15;;;3.30;;
9698;SDS011;10089;47.876;8.346;2023-10-09T15:24:12;15.20;;;3.92;;
9698;SDS011;10089;47.876;8.346;2023-10-09T15:26:41;18.85;;;3.75;;
9698;SDS011;10089;47.876;8.346;2023-10-09T15:29:07;14.80;;;3.75;;
9698;SDS011;10089;47.876;8.346;2023-10-09T15:31:35;10.93;;;3.22;;
9698;SDS011;10089;47.876;8.346;2023-10-09T15:34:05;14.45;;;3.50;;
9698;SDS011;10089;47.876;8.346;2023-10-09T15:36:34;11.18;;;3.10;;
9698;SDS011;10089;47.876;8.346;2023-10-09T15:39:00;18.33;;;4.10;;
9698;SDS011;10089;47.876;8.346;2023-10-09T15:41:27;10.40;;;4.30;;
9698;SDS011;10089;47.876;8.346;2023-10-09T15:43:57;12.20;;;3.88;;
9698;SDS011;10089;47.876;8.346;2023-10-09T15:46:23;14.98;;;5.50;;
9698;SDS011;10089;47.876;8.346;2023-10-09T15:48:50;10.60;;;3.72;;
9698;SDS011;10089;47.876;8.346;2023-10-09T15:51:19;11.68;;;3.67;;
9698;SDS011;10089;47.876;8.346;2023-10-09T15:53:45;12.05;;;4.38;;
9698;SDS011;10089;47.876;8.346;2023-10-09T15:56:12;10.63;;;3.00;;
9698;SDS011;10089;47.876;8.346;2023-10-09T15:58:39;16.13;;;5.38;;
9698;SDS011;10089;47.876;8.346;2023-10-09T16:01:08;15.35;;;4.50;;